sensor_id;sensor_type;location;lat;lon;timestamp;P1;durP1;ratioP1;P2;durP2;ratioP2
2610;SDS011;5612;51.134;17.058;2023-04-08T00:01:31;17.40;;;15.60;;
2610;SDS011;5612;51.134;17.058;2023-04-08T00:04:01;16.90;;;15.13;;
2610;SDS011;5612;51.134;17.058;2023-04-08T00:06:31;18.83;;;16.30;;
2610;SDS011;5612;51.134;17.058;2023-04-08T00:09:00;17.87;;;16.00;;
2610;SDS011;5612;51.134;17.058;2023-04-08T00:11:32;18.27;;;16.37;;
2610;SDS011;5612;51.134;17.058;2023-04-08T00:14:01;19.87;;;16.97;;
2610;SDS011;5612;51.134;17.058;2023-04-08T00:16:32;20.10;;;17.50;;
2610;SDS011;5612;51.134;17.058;2023-04-08T00:19:01;17.60;;;15.57;;
2610;SDS011;5612;51.134;17.058;2023-04-08T00:21:32;20.43;;;17.23;;
2610;SDS011;5612;51.134;17.058;2023-04-08T00:24:03;20.70;;;17.67;;
2610;SDS011;5612;51.134;17.058;2023-04-08T00:26:33;18.50;;;16.57;;
2610;SDS011;5612;51.134;17.058;2023-04-08T00:29:03;21.70;;;16.33;;
2610;SDS011;5612;51.134;17.058;2023-04-08T00:31:33;20.33;;;18.20;;
2610;SDS011;5612;51.134;17.058;2023-04-08T00:34:02;22.57;;;17.77;;
2610;SDS011;5612;51.134;17.058;2023-04-08T00:36:32;21.20;;;17.90;;
2610;SDS011;5612;51.134;17.058;2023-04-08T00:39:04;23.87;;;18.80;;
2610;SDS011;5612;51.134;17.058;2023-04-08T00:41:34;21.40;;;17.50;;
2610;SDS011;5612;51.134;17.058;2023-04-08T00:44:03;23.13;;;18.10;;
2610;SDS011;5612;51.134;17.058;2023-04-08T00:46:34;24.20;;;19.43;;
2610;SDS011;5612;51.134;17.058;2023-04-08T00:49:06;23.83;;;17.47;;
2610;SDS011;5612;51.134;17.058;2023-04-08T00:51:36;22.43;;;16.90;;
2610;SDS011;5612;51.134;17.058;2023-04-08T00:54:06;22.13;;;18.90;;
2610;SDS011;5612;51.134;17.058;2023-04-08T00:56:36;21.90;;;18.87;;
2610;SDS011;5612;51.134;17.058;2023-04-08T00:59:06;19.90;;;17.40;;
2610;SDS011;5612;51.134;17.058;2023-04-08T01:01:38;21.87;;;17.47;;
2610;SDS011;5612;51.134;17.058;2023-04-08T01:04:21;23.53;;;18.23;;
2610;SDS011;5612;51.134;17.058;2023-04-08T01:06:58;22.80;;;17.17;;
2610;SDS011;5612;51.134;17.058;2023-04-08T01:09:37;22.07;;;17.50;;
2610;SDS011;5612;51.134;17.058;2023-04-08T01:12:12;21.43;;;18.93;;
2610;SDS011;5612;51.134;17.058;2023-04-08T01:14:49;19.43;;;16.60;;
2610;SDS011;5612;51.134;17.058;2023-04-08T01:17:23;25.90;;;21.30;;
2610;SDS011;5612;51.134;17.058;2023-04-08T01:19:53;29.30;;;26.07;;
2610;SDS011;5612;51.134;17.058;2023-04-08T01:22:26;28.90;;;24.80;;
2610;SDS011;5612;51.134;17.058;2023-04-08T01:25:07;33.13;;;25.90;;
2610;SDS011;5612;51.134;17.058;2023-04-08T01:27:45;33.10;;;29.03;;
2610;SDS011;5612;51.134;17.058;2023-04-08T01:30:17;38.10;;;32.63;;
2610;SDS011;5612;51.134;17.058;2023-04-08T01:32:48;34.30;;;27.80;;
2610;SDS011;5612;51.134;17.058;2023-04-08T01:35:19;31.27;;;23.13;;
2610;SDS011;5612;51.134;17.058;2023-04-08T01:37:49;27.97;;;21.67;;
2610;SDS011;5612;51.134;17.058;2023-04-08T01:40:20;28.97;;;20.70;;
2610;SDS011;5612;51.134;17.058;2023-04-08T01:42:53;29.13;;;18.20;;
2610;SDS011;5612;51.134;17.058;2023-04-08T01:45:24;25.00;;;20.50;;
2610;SDS011;5612;51.134;17.058;2023-04-08T01:47:55;30.50;;;22.10;;
2610;SDS011;5612;51.134;17.058;2023-04-08T01:50:26;28.70;;;22.17;;
2610;SDS011;5612;51.134;17.058;2023-04-08T01:52:57;31.20;;;22.40;;
2610;SDS011;5612;51.134;17.058;2023-04-08T01:55:28;26.10;;;20.53;;
2610;SDS011;5612;51.134;17.058;2023-04-08T01:58:01;25.97;;;21.00;;
2610;SDS011;5612;51.134;17.058;2023-04-08T02:00:33;27.97;;;21.60;;
2610;SDS011;5612;51.134;17.058;2023-04-08T02:03:04;28.07;;;20.80;;
2610;SDS011;5612;51.134;17.058;2023-04-08T02:05:36;26.20;;;21.17;;
2610;SDS011;5612;51.134;17.058;2023-04-08T02:08:07;25.93;;;20.67;;
2610;SDS011;5612;51.134;17.058;2023-04-08T02:10:36;24.47;;;20.83;;
2610;SDS011;5612;51.134;17.058;2023-04-08T02:13:08;28.37;;;19.73;;
2610;SDS011;5612;51.134;17.058;2023-04-08T02:15:39;23.70;;;19.50;;
2610;SDS011;5612;51.134;17.058;2023-04-08T02:18:13;23.03;;;18.87;;
2610;SDS011;5612;51.134;17.058;2023-04-08T02:20:46;23.00;;;18.43;;
2610;SDS011;5612;51.134;17.058;2023-04-08T02:23:19;26.80;;;20.60;;
2610;SDS011;5612;51.134;17.058;2023-04-08T02:25:50;23.67;;;20.70;;
2610;SDS011;5612;51.134;17.058;2023-04-08T02:28:23;23.60;;;19.90;;
2610;SDS011;5612;51.134;17.058;2023-04-08T02:30:56;24.60;;;18.80;;
2610;SDS011;5612;51.134;17.058;2023-04-08T02:33:28;21.57;;;19.33;;
2610;SDS011;5612;51.134;17.058;2023-04-08T02:35:57;23.83;;;18.87;;
2610;SDS011;5612;51.134;17.058;2023-04-08T02:38:28;22.70;;;17.90;;
2610;SDS011;5612;51.134;17.058;2023-04-08T02:40:58;25.03;;;19.23;;
2610;SDS011;5612;51.134;17.058;2023-04-08T02:43:29;24.70;;;20.97;;
2610;SDS011;5612;51.134;17.058;2023-04-08T02:45:59;20.83;;;18.10;;
2610;SDS011;5612;51.134;17.058;2023-04-08T02:48:30;20.03;;;16.93;;
2610;SDS011;5612;51.134;17.058;2023-04-08T02:50:59;19.77;;;17.67;;
2610;SDS011;5612;51.134;17.058;2023-04-08T02:53:29;23.37;;;18.07;;
2610;SDS011;5612;51.134;17.058;2023-04-08T02:55:58;19.20;;;16.77;;
2610;SDS011;5612;51.134;17.058;2023-04-08T02:58:26;20.57;;;17.53;;
2610;SDS011;5612;51.134;17.058;2023-04-08T03:00:57;24.13;;;17.60;;
2610;SDS011;5612;51.134;17.058;2023-04-08T03:03:25;21.03;;;17.03;;
2610;SDS011;5612;51.134;17.058;2023-04-08T03:05:55;24.13;;;17.37;;
2610;SDS011;5612;51.134;17.058;2023-04-08T03:08:24;21.57;;;17.30;;
2610;SDS011;5612;51.134;17.058;2023-04-08T03:10:53;19.23;;;17.20;;
2610;SDS011;5612;51.134;17.058;2023-04-08T03:13:22;21.83;;;17.40;;
2610;SDS011;5612;51.134;17.058;2023-04-08T03:15:51;20.57;;;17.67;;
2610;SDS011;5612;51.134;17.058;2023-04-08T03:18:21;22.43;;;18.10;;
2610;SDS011;5612;51.134;17.058;2023-04-08T03:20:50;20.67;;;18.57;;
2610;SDS011;5612;51.134;17.058;2023-04-08T03:23:18;18.03;;;15.80;;
2610;SDS011;5612;51.134;17.058;2023-04-08T03:25:47;20.87;;;17.10;;
2610;SDS011;5612;51.134;17.058;2023-04-08T03:28:15;17.83;;;15.00;;
2610;SDS011;5612;51.134;17.058;2023-04-08T03:30:44;16.57;;;14.93;;
2610;SDS011;5612;51.134;17.058;2023-04-08T03:33:13;16.67;;;14.70;;
2610;SDS011;5612;51.134;17.058;2023-04-08T03:35:43;16.80;;;15.10;;
2610;SDS011;5612;51.134;17.058;2023-04-08T03:38:12;14.67;;;13.20;;
2610;SDS011;5612;51.134;17.058;2023-04-08T03:40:40;14.73;;;12.10;;
2610;SDS011;5612;51.134;17.058;2023-04-08T03:43:09;16.47;;;13.87;;
2610;SDS011;5612;51.134;17.058;2023-04-08T03:45:38;15.53;;;13.70;;
2610;SDS011;5612;51.134;17.058;2023-04-08T03:48:07;15.57;;;13.97;;
2610;SDS011;5612;51.134;17.058;2023-04-08T03:50:36;17.00;;;14.23;;
2610;SDS011;5612;51.134;17.058;2023-04-08T03:53:06;15.77;;;14.03;;
2610;SDS011;5612;51.134;17.058;2023-04-08T03:55:37;18.43;;;15.80;;
2610;SDS011;5612;51.134;17.058;2023-04-08T03:58:05;17.50;;;14.63;;
2610;SDS011;5612;51.134;17.058;2023-04-08T04:00:34;19.07;;;17.00;;
2610;SDS011;5612;51.134;17.058;2023-04-08T04:03:03;21.53;;;18.23;;
2610;SDS011;5612;51.134;17.058;2023-04-08T04:05:32;21.00;;;18.03;;
2610;SDS011;5612;51.134;17.058;2023-04-08T04:08:01;21.03;;;18.73;;
2610;SDS011;5612;51.134;17.058;2023-04-08T04:10:31;21.03;;;18.43;;
2610;SDS011;5612;51.134;17.058;2023-04-08T04:12:59;19.73;;;17.63;;
2610;SDS011;5612;51.134;17.058;2023-04-08T04:15:28;22.30;;;19.47;;
2610;SDS011;5612;51.134;17.058;2023-04-08T04:17:57;20.43;;;18.30;;
2610;SDS011;5612;51.134;17.058;2023-04-08T04:20:26;19.60;;;17.47;;
2610;SDS011;5612;51.134;17.058;2023-04-08T04:22:55;21.43;;;17.40;;
2610;SDS011;5612;51.134;17.058;2023-04-08T04:25:24;21.37;;;17.60;;
2610;SDS011;5612;51.134;17.058;2023-04-08T04:27:54;20.80;;;18.30;;
2610;SDS011;5612;51.134;17.058;2023-04-08T04:30:23;21.00;;;18.90;;
2610;SDS011;5612;51.134;17.058;2023-04-08T04:32:52;22.40;;;19.20;;
2610;SDS011;5612;51.134;17.058;2023-04-08T04:35:22;21.00;;;18.53;;
2610;SDS011;5612;51.134;17.058;2023-04-08T04:37:50;21.40;;;19.17;;
2610;SDS011;5612;51.134;17.058;2023-04-08T04:40:19;22.27;;;19.83;;
2610;SDS011;5612;51.134;17.058;2023-04-08T04:42:48;23.60;;;18.70;;
2610;SDS011;5612;51.134;17.058;2023-04-08T04:45:18;21.10;;;18.90;;
2610;SDS011;5612;51.134;17.058;2023-04-08T04:47:47;23.60;;;19.60;;
2610;SDS011;5612;51.134;17.058;2023-04-08T04:50:15;23.43;;;18.67;;
2610;SDS011;5612;51.134;17.058;2023-04-08T04:52:44;21.83;;;19.63;;
2610;SDS011;5612;51.134;17.058;2023-04-08T04:55:13;21.20;;;19.00;;
2610;SDS011;5612;51.134;17.058;2023-04-08T04:57:42;21.10;;;18.90;;
2610;SDS011;5612;51.134;17.058;2023-04-08T05:00:11;19.53;;;17.40;;
2610;SDS011;5612;51.134;17.058;2023-04-08T05:02:41;22.00;;;19.60;;
2610;SDS011;5612;51.134;17.058;2023-04-08T05:05:10;20.67;;;18.60;;
2610;SDS011;5612;51.134;17.058;2023-04-08T05:07:39;23.33;;;20.77;;
2610;SDS011;5612;51.134;17.058;2023-04-08T05:10:08;21.13;;;18.00;;
2610;SDS011;5612;51.134;17.058;2023-04-08T05:12:37;22.10;;;19.67;;
2610;SDS011;5612;51.134;17.058;2023-04-08T05:15:07;22.07;;;19.67;;
2610;SDS011;5612;51.134;17.058;2023-04-08T05:17:36;22.13;;;19.73;;
2610;SDS011;5612;51.134;17.058;2023-04-08T05:20:06;21.50;;;19.30;;
2610;SDS011;5612;51.134;17.058;2023-04-08T05:22:35;18.43;;;16.43;;
2610;SDS011;5612;51.134;17.058;2023-04-08T05:25:04;17.63;;;15.73;;
2610;SDS011;5612;51.134;17.058;2023-04-08T05:27:34;17.53;;;15.63;;
2610;SDS011;5612;51.134;17.058;2023-04-08T05:30:03;18.73;;;16.70;;
2610;SDS011;5612;51.134;17.058;2023-04-08T05:32:32;18.70;;;16.80;;
2610;SDS011;5612;51.134;17.058;2023-04-08T05:35:01;20.07;;;17.73;;
2610;SDS011;5612;51.134;17.058;2023-04-08T05:37:31;16.57;;;14.90;;
2610;SDS011;5612;51.134;17.058;2023-04-08T05:40:00;19.07;;;17.07;;
2610;SDS011;5612;51.134;17.058;2023-04-08T05:42:29;18.47;;;16.60;;
2610;SDS011;5612;51.134;17.058;2023-04-08T05:44:59;17.53;;;15.73;;
2610;SDS011;5612;51.134;17.058;2023-04-08T05:47:27;16.33;;;14.50;;
2610;SDS011;5612;51.134;17.058;2023-04-08T05:49:56;16.27;;;14.53;;
2610;SDS011;5612;51.134;17.058;2023-04-08T05:52:25;17.63;;;15.07;;
2610;SDS011;5612;51.134;17.058;2023-04-08T05:54:55;17.07;;;15.33;;
2610;SDS011;5612;51.134;17.058;2023-04-08T05:57:24;18.47;;;15.43;;
2610;SDS011;5612;51.134;17.058;2023-04-08T05:59:52;16.33;;;14.60;;
2610;SDS011;5612;51.134;17.058;2023-04-08T06:02:21;19.57;;;17.53;;
2610;SDS011;5612;51.134;17.058;2023-04-08T06:04:50;17.67;;;15.70;;
2610;SDS011;5612;51.134;17.058;2023-04-08T06:07:19;18.83;;;16.90;;
2610;SDS011;5612;51.134;17.058;2023-04-08T06:09:48;21.10;;;18.90;;
2610;SDS011;5612;51.134;17.058;2023-04-08T06:12:20;22.27;;;19.80;;
2610;SDS011;5612;51.134;17.058;2023-04-08T06:14:52;22.30;;;19.47;;
2610;SDS011;5612;51.134;17.058;2023-04-08T06:17:21;20.33;;;17.97;;
2610;SDS011;5612;51.134;17.058;2023-04-08T06:19:50;22.07;;;19.87;;
2610;SDS011;5612;51.134;17.058;2023-04-08T06:22:19;21.40;;;19.30;;
2610;SDS011;5612;51.134;17.058;2023-04-08T06:24:48;23.97;;;20.83;;
2610;SDS011;5612;51.134;17.058;2023-04-08T06:27:18;24.40;;;21.97;;
2610;SDS011;5612;51.134;17.058;2023-04-08T06:29:47;25.80;;;23.10;;
2610;SDS011;5612;51.134;17.058;2023-04-08T06:32:16;24.93;;;22.23;;
2610;SDS011;5612;51.134;17.058;2023-04-08T06:34:45;25.50;;;22.93;;
2610;SDS011;5612;51.134;17.058;2023-04-08T06:37:14;25.40;;;22.13;;
2610;SDS011;5612;51.134;17.058;2023-04-08T06:39:42;23.87;;;20.77;;
2610;SDS011;5612;51.134;17.058;2023-04-08T06:42:11;20.83;;;18.47;;
2610;SDS011;5612;51.134;17.058;2023-04-08T06:44:41;19.17;;;16.53;;
2610;SDS011;5612;51.134;17.058;2023-04-08T06:47:10;20.00;;;17.90;;
2610;SDS011;5612;51.134;17.058;2023-04-08T06:49:38;20.47;;;18.30;;
2610;SDS011;5612;51.134;17.058;2023-04-08T06:52:07;19.77;;;17.80;;
2610;SDS011;5612;51.134;17.058;2023-04-08T06:54:39;19.80;;;17.70;;
2610;SDS011;5612;51.134;17.058;2023-04-08T06:57:07;18.73;;;16.73;;
2610;SDS011;5612;51.134;17.058;2023-04-08T06:59:37;20.80;;;18.60;;
2610;SDS011;5612;51.134;17.058;2023-04-08T07:02:07;19.67;;;16.03;;
2610;SDS011;5612;51.134;17.058;2023-04-08T07:04:36;16.37;;;14.77;;
2610;SDS011;5612;51.134;17.058;2023-04-08T07:07:05;18.13;;;16.30;;
2610;SDS011;5612;51.134;17.058;2023-04-08T07:09:34;16.33;;;14.73;;
2610;SDS011;5612;51.134;17.058;2023-04-08T07:12:03;17.53;;;15.87;;
2610;SDS011;5612;51.134;17.058;2023-04-08T07:14:32;19.13;;;17.13;;
2610;SDS011;5612;51.134;17.058;2023-04-08T07:17:00;19.87;;;17.83;;
2610;SDS011;5612;51.134;17.058;2023-04-08T07:19:30;15.97;;;14.33;;
2610;SDS011;5612;51.134;17.058;2023-04-08T07:21:59;15.07;;;13.70;;
2610;SDS011;5612;51.134;17.058;2023-04-08T07:24:28;13.73;;;12.33;;
2610;SDS011;5612;51.134;17.058;2023-04-08T07:26:57;15.30;;;13.83;;
2610;SDS011;5612;51.134;17.058;2023-04-08T07:29:26;13.77;;;12.50;;
2610;SDS011;5612;51.134;17.058;2023-04-08T07:31:54;15.47;;;13.97;;
2610;SDS011;5612;51.134;17.058;2023-04-08T07:34:23;15.30;;;13.70;;
2610;SDS011;5612;51.134;17.058;2023-04-08T07:36:53;13.87;;;12.50;;
2610;SDS011;5612;51.134;17.058;2023-04-08T07:39:22;15.10;;;13.70;;
2610;SDS011;5612;51.134;17.058;2023-04-08T07:41:50;14.20;;;12.80;;
2610;SDS011;5612;51.134;17.058;2023-04-08T07:44:20;12.83;;;11.73;;
2610;SDS011;5612;51.134;17.058;2023-04-08T07:46:49;14.57;;;13.17;;
2610;SDS011;5612;51.134;17.058;2023-04-08T07:49:18;15.50;;;14.17;;
2610;SDS011;5612;51.134;17.058;2023-04-08T07:51:47;14.73;;;13.43;;
2610;SDS011;5612;51.134;17.058;2023-04-08T07:54:17;14.57;;;13.07;;
2610;SDS011;5612;51.134;17.058;2023-04-08T07:56:46;16.87;;;15.07;;
2610;SDS011;5612;51.134;17.058;2023-04-08T07:59:15;16.27;;;14.73;;
2610;SDS011;5612;51.134;17.058;2023-04-08T08:01:44;15.73;;;14.13;;
2610;SDS011;5612;51.134;17.058;2023-04-08T08:04:12;14.20;;;12.77;;
2610;SDS011;5612;51.134;17.058;2023-04-08T08:06:41;14.87;;;13.47;;
2610;SDS011;5612;51.134;17.058;2023-04-08T08:09:10;15.80;;;14.40;;
2610;SDS011;5612;51.134;17.058;2023-04-08T08:11:40;16.77;;;14.67;;
2610;SDS011;5612;51.134;17.058;2023-04-08T08:14:09;16.93;;;14.20;;
2610;SDS011;5612;51.134;17.058;2023-04-08T08:16:39;16.30;;;14.80;;
2610;SDS011;5612;51.134;17.058;2023-04-08T08:19:10;15.57;;;13.97;;
2610;SDS011;5612;51.134;17.058;2023-04-08T08:21:39;13.67;;;12.47;;
2610;SDS011;5612;51.134;17.058;2023-04-08T08:24:08;14.63;;;13.27;;
2610;SDS011;5612;51.134;17.058;2023-04-08T08:26:36;13.67;;;12.37;;
2610;SDS011;5612;51.134;17.058;2023-04-08T08:29:07;13.73;;;12.33;;
2610;SDS011;5612;51.134;17.058;2023-04-08T08:31:36;13.77;;;12.50;;
2610;SDS011;5612;51.134;17.058;2023-04-08T08:34:05;13.90;;;12.60;;
2610;SDS011;5612;51.134;17.058;2023-04-08T08:36:33;13.53;;;12.30;;
2610;SDS011;5612;51.134;17.058;2023-04-08T08:39:02;13.77;;;12.37;;
2610;SDS011;5612;51.134;17.058;2023-04-08T08:41:34;13.30;;;12.20;;
2610;SDS011;5612;51.134;17.058;2023-04-08T08:44:04;13.00;;;11.73;;
2610;SDS011;5612;51.134;17.058;2023-04-08T08:46:35;14.07;;;12.77;;
2610;SDS011;5612;51.134;17.058;2023-04-08T08:49:05;13.30;;;12.20;;
2610;SDS011;5612;51.134;17.058;2023-04-08T08:51:34;20.47;;;18.33;;
2610;SDS011;5612;51.134;17.058;2023-04-08T08:54:05;14.10;;;12.70;;
2610;SDS011;5612;51.134;17.058;2023-04-08T08:56:34;13.30;;;12.07;;
2610;SDS011;5612;51.134;17.058;2023-04-08T08:59:03;14.30;;;13.03;;
2610;SDS011;5612;51.134;17.058;2023-04-08T09:01:32;12.93;;;11.80;;
2610;SDS011;5612;51.134;17.058;2023-04-08T09:04:11;13.47;;;12.23;;
2610;SDS011;5612;51.134;17.058;2023-04-08T09:06:43;15.47;;;13.00;;
2610;SDS011;5612;51.134;17.058;2023-04-08T09:09:12;12.47;;;11.30;;
2610;SDS011;5612;51.134;17.058;2023-04-08T09:11:41;15.20;;;13.90;;
2610;SDS011;5612;51.134;17.058;2023-04-08T09:14:18;14.20;;;13.00;;
2610;SDS011;5612;51.134;17.058;2023-04-08T09:16:50;14.20;;;11.40;;
2610;SDS011;5612;51.134;17.058;2023-04-08T09:19:26;13.70;;;12.40;;
2610;SDS011;5612;51.134;17.058;2023-04-08T09:22:05;14.73;;;13.40;;
2610;SDS011;5612;51.134;17.058;2023-04-08T09:24:36;14.60;;;13.20;;
2610;SDS011;5612;51.134;17.058;2023-04-08T09:27:06;14.70;;;13.30;;
2610;SDS011;5612;51.134;17.058;2023-04-08T09:29:35;15.27;;;13.70;;
2610;SDS011;5612;51.134;17.058;2023-04-08T09:32:07;16.40;;;14.70;;
2610;SDS011;5612;51.134;17.058;2023-04-08T09:34:35;15.10;;;13.70;;
2610;SDS011;5612;51.134;17.058;2023-04-08T09:37:06;15.43;;;14.03;;
2610;SDS011;5612;51.134;17.058;2023-04-08T09:39:34;16.17;;;14.80;;
2610;SDS011;5612;51.134;17.058;2023-04-08T09:42:03;16.57;;;15.10;;
2610;SDS011;5612;51.134;17.058;2023-04-08T09:44:36;14.93;;;13.50;;
2610;SDS011;5612;51.134;17.058;2023-04-08T09:47:09;14.40;;;13.00;;
2610;SDS011;5612;51.134;17.058;2023-04-08T09:49:47;14.67;;;13.37;;
2610;SDS011;5612;51.134;17.058;2023-04-08T09:52:21;14.73;;;13.33;;
2610;SDS011;5612;51.134;17.058;2023-04-08T09:54:56;16.50;;;15.00;;
2610;SDS011;5612;51.134;17.058;2023-04-08T09:57:30;17.50;;;15.83;;
2610;SDS011;5612;51.134;17.058;2023-04-08T10:00:08;15.47;;;13.97;;
2610;SDS011;5612;51.134;17.058;2023-04-08T10:02:43;16.53;;;15.10;;
2610;SDS011;5612;51.134;17.058;2023-04-08T10:05:22;16.63;;;15.10;;
2610;SDS011;5612;51.134;17.058;2023-04-08T10:07:52;16.60;;;15.00;;
2610;SDS011;5612;51.134;17.058;2023-04-08T10:10:22;15.53;;;13.93;;
2610;SDS011;5612;51.134;17.058;2023-04-08T10:12:53;14.70;;;13.30;;
2610;SDS011;5612;51.134;17.058;2023-04-08T10:15:24;13.73;;;12.63;;
2610;SDS011;5612;51.134;17.058;2023-04-08T10:21:03;15.07;;;13.67;;
2610;SDS011;5612;51.134;17.058;2023-04-08T10:23:54;15.70;;;14.30;;
2610;SDS011;5612;51.134;17.058;2023-04-08T10:26:29;14.10;;;12.80;;
2610;SDS011;5612;51.134;17.058;2023-04-08T10:32:08;16.60;;;15.00;;
2610;SDS011;5612;51.134;17.058;2023-04-08T10:34:57;17.20;;;15.70;;
2610;SDS011;5612;51.134;17.058;2023-04-08T10:37:26;16.10;;;14.60;;
2610;SDS011;5612;51.134;17.058;2023-04-08T10:39:55;16.60;;;14.93;;
2610;SDS011;5612;51.134;17.058;2023-04-08T10:42:27;16.80;;;15.10;;
2610;SDS011;5612;51.134;17.058;2023-04-08T10:44:59;14.43;;;13.10;;
2610;SDS011;5612;51.134;17.058;2023-04-08T10:47:28;16.73;;;15.13;;
2610;SDS011;5612;51.134;17.058;2023-04-08T10:49:59;16.03;;;14.53;;
2610;SDS011;5612;51.134;17.058;2023-04-08T10:52:28;15.50;;;13.90;;
2610;SDS011;5612;51.134;17.058;2023-04-08T10:54:57;17.37;;;15.67;;
2610;SDS011;5612;51.134;17.058;2023-04-08T10:57:25;15.70;;;14.30;;
2610;SDS011;5612;51.134;17.058;2023-04-08T10:59:54;15.80;;;14.30;;
2610;SDS011;5612;51.134;17.058;2023-04-08T11:02:30;15.67;;;14.27;;
2610;SDS011;5612;51.134;17.058;2023-04-08T11:05:01;16.03;;;14.43;;
2610;SDS011;5612;51.134;17.058;2023-04-08T11:07:30;16.40;;;14.90;;
2610;SDS011;5612;51.134;17.058;2023-04-08T11:10:01;15.03;;;13.43;;
2610;SDS011;5612;51.134;17.058;2023-04-08T11:12:30;15.13;;;13.83;;
2610;SDS011;5612;51.134;17.058;2023-04-08T11:14:59;14.50;;;13.20;;
2610;SDS011;5612;51.134;17.058;2023-04-08T11:17:29;15.90;;;14.50;;
2610;SDS011;5612;51.134;17.058;2023-04-08T11:20:02;16.63;;;15.13;;
2610;SDS011;5612;51.134;17.058;2023-04-08T11:22:32;15.80;;;14.40;;
2610;SDS011;5612;51.134;17.058;2023-04-08T11:25:01;16.40;;;15.00;;
2610;SDS011;5612;51.134;17.058;2023-04-08T11:27:30;14.60;;;13.40;;
2610;SDS011;5612;51.134;17.058;2023-04-08T11:29:59;15.10;;;13.90;;
2610;SDS011;5612;51.134;17.058;2023-04-08T11:32:28;14.40;;;13.30;;
2610;SDS011;5612;51.134;17.058;2023-04-08T11:34:58;13.50;;;12.50;;
2610;SDS011;5612;51.134;17.058;2023-04-08T11:37:36;12.10;;;11.20;;
2610;SDS011;5612;51.134;17.058;2023-04-08T11:40:07;13.97;;;12.87;;
2610;SDS011;5612;51.134;17.058;2023-04-08T11:42:37;12.40;;;11.50;;
2610;SDS011;5612;51.134;17.058;2023-04-08T11:45:10;12.80;;;11.70;;
2610;SDS011;5612;51.134;17.058;2023-04-08T11:47:39;14.10;;;12.90;;
2610;SDS011;5612;51.134;17.058;2023-04-08T11:50:09;12.17;;;11.27;;
2610;SDS011;5612;51.134;17.058;2023-04-08T11:52:42;32.50;;;28.93;;
2610;SDS011;5612;51.134;17.058;2023-04-08T11:55:21;13.60;;;12.53;;
2610;SDS011;5612;51.134;17.058;2023-04-08T11:57:51;13.13;;;12.13;;
2610;SDS011;5612;51.134;17.058;2023-04-08T12:00:20;12.40;;;11.50;;
2610;SDS011;5612;51.134;17.058;2023-04-08T12:02:50;12.70;;;11.80;;
2610;SDS011;5612;51.134;17.058;2023-04-08T12:05:19;12.30;;;11.50;;
2610;SDS011;5612;51.134;17.058;2023-04-08T12:07:49;11.50;;;10.60;;
2610;SDS011;5612;51.134;17.058;2023-04-08T12:10:18;11.63;;;10.83;;
2610;SDS011;5612;51.134;17.058;2023-04-08T12:12:47;11.90;;;11.00;;
2610;SDS011;5612;51.134;17.058;2023-04-08T12:15:16;11.53;;;10.63;;
2610;SDS011;5612;51.134;17.058;2023-04-08T12:17:45;12.10;;;11.20;;
2610;SDS011;5612;51.134;17.058;2023-04-08T12:20:14;10.93;;;9.93;;
2610;SDS011;5612;51.134;17.058;2023-04-08T12:22:44;11.40;;;10.50;;
2610;SDS011;5612;51.134;17.058;2023-04-08T12:25:14;12.23;;;11.13;;
2610;SDS011;5612;51.134;17.058;2023-04-08T12:27:43;11.27;;;10.37;;
2610;SDS011;5612;51.134;17.058;2023-04-08T12:30:12;12.30;;;11.10;;
2610;SDS011;5612;51.134;17.058;2023-04-08T12:32:42;12.23;;;11.23;;
2610;SDS011;5612;51.134;17.058;2023-04-08T12:35:11;13.53;;;12.17;;
2610;SDS011;5612;51.134;17.058;2023-04-08T12:37:40;12.20;;;11.20;;
2610;SDS011;5612;51.134;17.058;2023-04-08T12:40:09;11.53;;;10.63;;
2610;SDS011;5612;51.134;17.058;2023-04-08T12:42:39;12.00;;;11.00;;
2610;SDS011;5612;51.134;17.058;2023-04-08T12:45:08;10.53;;;9.63;;
2610;SDS011;5612;51.134;17.058;2023-04-08T12:47:37;10.40;;;9.53;;
2610;SDS011;5612;51.134;17.058;2023-04-08T12:50:06;12.07;;;10.87;;
2610;SDS011;5612;51.134;17.058;2023-04-08T12:52:36;12.13;;;11.23;;
2610;SDS011;5612;51.134;17.058;2023-04-08T12:55:05;11.20;;;10.20;;
2610;SDS011;5612;51.134;17.058;2023-04-08T12:57:34;10.33;;;9.53;;
2610;SDS011;5612;51.134;17.058;2023-04-08T13:00:05;11.87;;;10.97;;
2610;SDS011;5612;51.134;17.058;2023-04-08T13:02:35;10.27;;;9.53;;
2610;SDS011;5612;51.134;17.058;2023-04-08T13:05:04;11.60;;;10.50;;
2610;SDS011;5612;51.134;17.058;2023-04-08T13:07:33;9.80;;;9.10;;
2610;SDS011;5612;51.134;17.058;2023-04-08T13:10:01;12.83;;;11.83;;
2610;SDS011;5612;51.134;17.058;2023-04-08T13:12:32;12.10;;;11.00;;
2610;SDS011;5612;51.134;17.058;2023-04-08T13:15:01;10.60;;;9.80;;
2610;SDS011;5612;51.134;17.058;2023-04-08T13:17:33;11.27;;;10.37;;
2610;SDS011;5612;51.134;17.058;2023-04-08T13:20:02;10.70;;;9.70;;
2610;SDS011;5612;51.134;17.058;2023-04-08T13:22:32;11.57;;;10.67;;
2610;SDS011;5612;51.134;17.058;2023-04-08T13:25:01;11.77;;;10.77;;
2610;SDS011;5612;51.134;17.058;2023-04-08T13:27:32;10.93;;;10.13;;
2610;SDS011;5612;51.134;17.058;2023-04-08T13:30:01;10.40;;;9.70;;
2610;SDS011;5612;51.134;17.058;2023-04-08T13:32:30;10.57;;;9.80;;
2610;SDS011;5612;51.134;17.058;2023-04-08T13:35:00;10.67;;;9.87;;
2610;SDS011;5612;51.134;17.058;2023-04-08T13:37:29;10.80;;;10.00;;
2610;SDS011;5612;51.134;17.058;2023-04-08T13:39:57;10.60;;;9.80;;
2610;SDS011;5612;51.134;17.058;2023-04-08T13:42:27;10.23;;;9.53;;
2610;SDS011;5612;51.134;17.058;2023-04-08T13:44:57;10.67;;;9.87;;
2610;SDS011;5612;51.134;17.058;2023-04-08T13:47:26;10.37;;;9.67;;
2610;SDS011;5612;51.134;17.058;2023-04-08T13:49:55;9.40;;;8.60;;
2610;SDS011;5612;51.134;17.058;2023-04-08T13:52:25;10.13;;;9.33;;
2610;SDS011;5612;51.134;17.058;2023-04-08T13:54:54;10.17;;;9.37;;
2610;SDS011;5612;51.134;17.058;2023-04-08T13:57:23;9.00;;;8.40;;
2610;SDS011;5612;51.134;17.058;2023-04-08T13:59:52;8.37;;;7.77;;
2610;SDS011;5612;51.134;17.058;2023-04-08T14:02:21;8.70;;;8.20;;
2610;SDS011;5612;51.134;17.058;2023-04-08T14:04:52;8.87;;;8.27;;
2610;SDS011;5612;51.134;17.058;2023-04-08T14:07:21;9.73;;;8.97;;
2610;SDS011;5612;51.134;17.058;2023-04-08T14:09:51;9.90;;;9.20;;
2610;SDS011;5612;51.134;17.058;2023-04-08T14:12:19;9.77;;;9.07;;
2610;SDS011;5612;51.134;17.058;2023-04-08T14:14:48;10.23;;;9.50;;
2610;SDS011;5612;51.134;17.058;2023-04-08T14:17:17;10.27;;;9.50;;
2610;SDS011;5612;51.134;17.058;2023-04-08T14:19:46;10.80;;;10.00;;
2610;SDS011;5612;51.134;17.058;2023-04-08T14:22:14;9.73;;;9.03;;
2610;SDS011;5612;51.134;17.058;2023-04-08T14:24:44;9.17;;;8.57;;
2610;SDS011;5612;51.134;17.058;2023-04-08T14:27:14;9.60;;;8.87;;
2610;SDS011;5612;51.134;17.058;2023-04-08T14:29:43;10.80;;;10.00;;
2610;SDS011;5612;51.134;17.058;2023-04-08T14:32:12;9.87;;;9.17;;
2610;SDS011;5612;51.134;17.058;2023-04-08T14:34:41;9.77;;;9.07;;
2610;SDS011;5612;51.134;17.058;2023-04-08T14:37:10;10.23;;;9.23;;
2610;SDS011;5612;51.134;17.058;2023-04-08T14:39:39;11.13;;;10.23;;
2610;SDS011;5612;51.134;17.058;2023-04-08T14:42:07;10.20;;;9.40;;
2610;SDS011;5612;51.134;17.058;2023-04-08T14:44:38;10.83;;;10.00;;
2610;SDS011;5612;51.134;17.058;2023-04-08T14:47:07;13.00;;;12.10;;
2610;SDS011;5612;51.134;17.058;2023-04-08T14:49:36;10.70;;;9.90;;
2610;SDS011;5612;51.134;17.058;2023-04-08T14:52:05;10.33;;;9.53;;
2610;SDS011;5612;51.134;17.058;2023-04-08T14:54:33;11.63;;;10.50;;
2610;SDS011;5612;51.134;17.058;2023-04-08T14:57:03;11.70;;;10.70;;
2610;SDS011;5612;51.134;17.058;2023-04-08T14:59:32;15.33;;;14.03;;